Time,TemperatureF,DewpointF,PressureIn,WindDirection,WindDirectionDegrees,WindSpeedMPH,WindSpeedGustMPH,Humidity,HourlyPrecipIn,Conditions,Clouds,dailyrainin,SoftwareType,DateUTC
2013-05-25 00:00:00,65.0,41.9,29.74,WSW,252,2.0,2.0,43,0.00,,,0.00,Wunderground v.1.15,2013-05-25 06:00:00,
2013-05-25 00:06:00,64.8,42.9,29.74,WSW,252,1.0,3.0,45,0.00,,,0.00,Wunderground v.1.15,2013-05-25 06:06:00,
2013-05-25 00:12:00,64.5,41.5,29.74,WSW,254,2.0,2.0,43,0.00,,,0.00,Wunderground v.1.15,2013-05-25 06:12:00,
2013-05-25 00:18:00,64.2,41.8,29.74,WSW,256,3.0,4.0,44,0.00,,,0.00,Wunderground v.1.15,2013-05-25 06:18:00,
2013-05-25 00:24:00,64.0,41.6,29.74,WSW,257,2.0,4.0,44,0.00,,,0.00,Wunderground v.1.15,2013-05-25 06:24:00,
2013-05-25 00:30:00,64.0,42.8,29.74,WSW,256,2.0,2.0,46,0.00,,,0.00,Wunderground v.1.15,2013-05-25 06:30:00,
2013-05-25 00:36:00,64.0,43.4,29.74,WSW,256,1.0,2.0,47,0.00,,,0.00,Wunderground v.1.15,2013-05-25 06:36:00,
2013-05-25 00:42:00,64.2,43.5,29.74,WSW,257,2.0,3.0,47,0.00,,,0.00,Wunderground v.1.15,2013-05-25 06:42:00,
2013-05-25 00:48:00,64.2,44.1,29.74,West,259,2.0,3.0,48,0.00,,,0.00,Wunderground v.1.15,2013-05-25 06:48:00,
2013-05-25 00:54:00,64.2,44.1,29.74,West,260,2.0,5.0,48,0.00,,,0.00,Wunderground v.1.15,2013-05-25 06:54:00,
2013-05-25 01:00:00,64.2,44.1,29.74,West,260,2.0,2.0,48,0.00,,,0.00,Wunderground v.1.15,2013-05-25 07:00:00,
2013-05-25 01:06:00,63.9,43.8,29.74,West,260,2.0,5.0,48,0.00,,,0.00,Wunderground v.1.15,2013-05-25 07:06:00,
2013-05-25 01:12:00,63.7,44.2,29.74,West,268,2.0,2.0,49,0.00,,,0.00,Wunderground v.1.15,2013-05-25 07:12:00,
2013-05-25 01:18:00,63.4,43.9,29.72,West,269,2.0,2.0,49,0.00,,,0.00,Wunderground v.1.15,2013-05-25 07:18:00,
2013-05-25 01:24:00,63.2,43.7,29.72,West,269,2.0,2.0,49,0.00,,,0.00,Wunderground v.1.15,2013-05-25 07:24:00,
2013-05-25 01:30:00,63.1,43.6,29.73,West,269,2.0,2.0,49,0.00,,,0.00,Wunderground v.1.15,2013-05-25 07:30:00,
2013-05-25 01:36:00,62.6,43.2,29.73,West,269,2.0,3.0,49,0.00,,,0.00,Wunderground v.1.15,2013-05-25 07:36:00,
2013-05-25 01:42:00,62.4,43.0,29.73,West,269,2.0,3.0,49,0.00,,,0.00,Wunderground v.1.15,2013-05-25 07:42:00,
2013-05-25 01:48:00,62.0,43.7,29.73,West,269,1.0,3.0,51,0.00,,,0.00,Wunderground v.1.15,2013-05-25 07:48:00,
2013-05-25 01:54:00,61.6,43.3,29.73,West,269,1.0,5.0,51,0.00,,,0.00,Wunderground v.1.15,2013-05-25 07:54:00,
2013-05-25 02:00:00,61.5,43.2,29.73,West,269,2.0,2.0,51,0.00,,,0.00,Wunderground v.1.15,2013-05-25 08:00:00,
2013-05-25 02:06:00,61.3,44.0,29.73,West,268,1.0,6.0,53,0.00,,,0.00,Wunderground v.1.15,2013-05-25 08:06:00,
2013-05-25 02:12:00,61.2,43.9,29.73,West,268,1.0,2.0,53,0.00,,,0.00,Wunderground v.1.15,2013-05-25 08:12:00,
2013-05-25 02:18:00,61.0,43.7,29.71,West,269,2.0,4.0,53,0.00,,,0.00,Wunderground v.1.15,2013-05-25 08:18:00,
2013-05-25 02:24:00,60.9,43.1,29.71,West,271,3.0,4.0,52,0.00,,,0.00,Wunderground v.1.15,2013-05-25 08:24:00,
2013-05-25 02:30:00,60.5,43.8,29.71,West,273,3.0,7.0,54,0.00,,,0.00,Wunderground v.1.15,2013-05-25 08:30:00,
2013-05-25 02:36:00,60.5,43.8,29.71,West,274,3.0,7.0,54,0.00,,,0.00,Wunderground v.1.15,2013-05-25 08:36:00,
2013-05-25 02:42:00,60.4,44.2,29.71,West,276,3.0,3.0,55,0.00,,,0.00,Wunderground v.1.15,2013-05-25 08:42:00,
2013-05-25 02:48:00,60.1,45.3,29.71,West,276,1.0,3.0,58,0.00,,,0.00,Wunderground v.1.15,2013-05-25 08:48:00,
2013-05-25 02:54:00,59.9,44.6,29.71,West,276,1.0,2.0,57,0.00,,,0.00,Wunderground v.1.15,2013-05-25 08:54:00,
2013-05-25 03:00:00,59.9,43.7,29.71,West,276,2.0,2.0,55,0.00,,,0.00,Wunderground v.1.15,2013-05-25 09:00:00,
2013-05-25 03:06:00,60.1,43.4,29.71,West,276,2.0,5.0,54,0.00,,,0.00,Wunderground v.1.15,2013-05-25 09:06:00,
2013-05-25 03:12:00,59.9,42.7,29.71,West,278,3.0,3.0,53,0.00,,,0.00,Wunderground v.1.15,2013-05-25 09:12:00,
2013-05-25 03:18:00,59.9,43.2,29.70,West,278,3.0,3.0,54,0.00,,,0.00,Wunderground v.1.15,2013-05-25 09:18:00,
2013-05-25 03:24:00,59.5,44.2,29.70,West,278,1.0,2.0,57,0.00,,,0.00,Wunderground v.1.15,2013-05-25 09:24:00,
2013-05-25 03:30:00,58.7,47.0,29.70,West,278,0.0,0.0,65,0.00,,,0.00,Wunderground v.1.15,2013-05-25 09:30:00,
2013-05-25 03:36:00,58.0,46.3,29.70,West,278,1.0,1.0,65,0.00,,,0.00,Wunderground v.1.15,2013-05-25 09:36:00,
2013-05-25 03:42:00,57.3,46.8,29.70,West,278,0.0,0.0,68,0.00,,,0.00,Wunderground v.1.15,2013-05-25 09:42:00,
2013-05-25 03:48:00,56.6,47.3,29.70,West,278,0.0,2.0,71,0.00,,,0.00,Wunderground v.1.15,2013-05-25 09:48:00,
2013-05-25 03:54:00,56.2,48.0,29.70,West,278,0.0,0.0,74,0.00,,,0.00,Wunderground v.1.15,2013-05-25 09:54:00,
2013-05-25 04:00:00,55.7,47.5,29.71,West,278,0.0,0.0,74,0.00,,,0.00,Wunderground v.1.15,2013-05-25 10:00:00,
2013-05-25 04:06:00,55.3,47.2,29.71,West,278,0.0,6.0,74,0.00,,,0.00,Wunderground v.1.15,2013-05-25 10:06:00,
2013-05-25 04:12:00,54.7,46.6,29.71,West,278,1.0,2.0,74,0.00,,,0.00,Wunderground v.1.15,2013-05-25 10:12:00,
2013-05-25 04:18:00,54.5,46.7,29.72,West,278,0.0,2.0,75,0.00,,,0.00,Wunderground v.1.15,2013-05-25 10:18:00,
2013-05-25 04:24:00,54.2,46.8,29.72,West,278,0.0,0.0,76,0.00,,,0.00,Wunderground v.1.15,2013-05-25 10:24:00,
2013-05-25 04:30:00,53.8,46.8,29.73,West,278,0.0,0.0,77,0.00,,,0.00,Wunderground v.1.15,2013-05-25 10:30:00,
2013-05-25 04:36:00,53.5,47.1,29.73,West,278,0.0,0.0,79,0.00,,,0.00,Wunderground v.1.15,2013-05-25 10:36:00,
2013-05-25 04:42:00,53.2,46.9,29.73,West,278,0.0,0.0,79,0.00,,,0.00,Wunderground v.1.15,2013-05-25 10:42:00,
2013-05-25 04:48:00,53.1,46.4,29.74,West,278,0.0,0.0,78,0.00,,,0.00,Wunderground v.1.15,2013-05-25 10:48:00,
2013-05-25 04:54:00,52.9,45.5,29.74,West,278,0.0,0.0,76,0.00,,,0.00,Wunderground v.1.15,2013-05-25 10:54:00,
2013-05-25 05:00:00,52.8,45.1,29.74,West,278,0.0,0.0,75,0.00,,,0.00,Wunderground v.1.15,2013-05-25 11:00:00,
2013-05-25 05:06:00,52.6,45.2,29.74,West,278,0.0,2.0,76,0.00,,,0.00,Wunderground v.1.15,2013-05-25 11:06:00,
2013-05-25 05:12:00,52.6,43.1,29.74,West,278,0.0,0.0,70,0.00,,,0.00,Wunderground v.1.15,2013-05-25 11:12:00,
2013-05-25 05:18:00,52.8,44.4,29.75,West,278,0.0,0.0,73,0.00,,,0.00,Wunderground v.1.15,2013-05-25 11:18:00,
2013-05-25 05:24:00,52.2,44.2,29.75,West,278,1.0,2.0,74,0.00,,,0.00,Wunderground v.1.15,2013-05-25 11:24:00,
2013-05-25 05:30:00,52.0,42.1,29.75,West,278,1.0,3.0,69,0.00,,,0.00,Wunderground v.1.15,2013-05-25 11:30:00,
2013-05-25 05:36:00,52.8,36.6,29.75,West,277,2.0,3.0,54,0.00,,,0.00,Wunderground v.1.15,2013-05-25 11:36:00,
2013-05-25 05:42:00,54.5,34.1,29.75,West,278,3.0,5.0,46,0.00,,,0.00,Wunderground v.1.15,2013-05-25 11:42:00,
2013-05-25 05:48:00,55.3,32.6,29.75,West,278,3.0,5.0,42,0.00,,,0.00,Wunderground v.1.15,2013-05-25 11:48:00,
2013-05-25 05:54:00,55.9,30.6,29.75,West,279,2.0,4.0,38,0.00,,,0.00,Wunderground v.1.15,2013-05-25 11:54:00,
2013-05-25 06:00:00,56.2,30.2,29.76,West,279,2.0,3.0,37,0.00,,,0.00,Wunderground v.1.15,2013-05-25 12:00:00,
2013-05-25 06:06:00,56.5,29.1,29.76,SW,226,3.0,3.0,35,0.00,,,0.00,Wunderground v.1.15,2013-05-25 12:06:00,
2013-05-25 06:12:00,56.7,29.3,29.76,WSW,237,4.0,4.0,35,0.00,,,0.00,Wunderground v.1.15,2013-05-25 12:12:00,
2013-05-25 06:18:00,56.9,29.5,29.75,WSW,257,4.0,5.0,35,0.00,,,0.00,Wunderground v.1.15,2013-05-25 12:18:00,
2013-05-25 06:24:00,57.2,29.1,29.75,West,263,4.0,7.0,34,0.00,,,0.00,Wunderground v.1.15,2013-05-25 12:24:00,
2013-05-25 06:30:00,57.3,28.4,29.75,WNW,293,4.0,5.0,33,0.00,,,0.00,Wunderground v.1.15,2013-05-25 12:30:00,
2013-05-25 06:36:00,57.6,29.4,29.75,West,271,3.0,5.0,34,0.00,,,0.00,Wunderground v.1.15,2013-05-25 12:36:00,
2013-05-25 06:42:00,58.1,31.3,29.75,West,266,3.0,4.0,36,0.00,,,0.00,Wunderground v.1.15,2013-05-25 12:42:00,
2013-05-25 06:48:00,58.4,32.2,29.75,West,266,3.0,4.0,37,0.00,,,0.00,Wunderground v.1.15,2013-05-25 12:48:00,
2013-05-25 06:54:00,58.9,37.0,29.75,SW,236,2.0,2.0,44,0.00,,,0.00,Wunderground v.1.15,2013-05-25 12:54:00,
2013-05-25 07:00:00,58.7,38.5,29.74,SW,235,2.0,2.0,47,0.00,,,0.00,Wunderground v.1.15,2013-05-25 13:00:00,
2013-05-25 07:06:00,58.9,35.2,29.74,WSW,257,2.0,6.0,41,0.00,,,0.00,Wunderground v.1.15,2013-05-25 13:06:00,
2013-05-25 07:12:00,60.2,33.1,29.74,WSW,257,2.0,2.0,36,0.00,,,0.00,Wunderground v.1.15,2013-05-25 13:12:00,
2013-05-25 07:18:00,61.0,36.5,29.75,WSW,257,1.0,3.0,40,0.00,,,0.00,Wunderground v.1.15,2013-05-25 13:18:00,
2013-05-25 07:24:00,61.2,38.5,29.75,NW,316,2.0,2.0,43,0.00,,,0.00,Wunderground v.1.15,2013-05-25 13:24:00,
2013-05-25 07:30:00,61.3,38.0,29.75,NW,316,2.0,3.0,42,0.00,,,0.00,Wunderground v.1.15,2013-05-25 13:30:00,
2013-05-25 07:36:00,62.1,39.3,29.75,NW,316,1.0,3.0,43,0.00,,,0.00,Wunderground v.1.15,2013-05-25 13:36:00,
2013-05-25 07:42:00,62.6,39.2,29.75,NNW,338,1.0,1.0,42,0.00,,,0.00,Wunderground v.1.15,2013-05-25 13:42:00,
2013-05-25 07:48:00,62.9,35.5,29.74,NNW,338,1.0,1.0,36,0.00,,,0.00,Wunderground v.1.15,2013-05-25 13:48:00,
2013-05-25 07:54:00,63.4,38.0,29.74,NNW,338,0.0,1.0,39,0.00,,,0.00,Wunderground v.1.15,2013-05-25 13:54:00,
2013-05-25 08:00:00,64.3,38.8,29.74,NNW,338,0.0,0.0,39,0.00,,,0.00,Wunderground v.1.15,2013-05-25 14:00:00,
2013-05-25 08:06:00,65.8,37.4,29.74,NNW,338,0.0,7.0,35,0.00,,,0.00,Wunderground v.1.15,2013-05-25 14:06:00,
2013-05-25 08:12:00,66.6,38.1,29.74,NNW,338,0.0,0.0,35,0.00,,,0.00,Wunderground v.1.15,2013-05-25 14:12:00,
2013-05-25 08:18:00,67.4,38.0,29.75,NNW,338,0.0,0.0,34,0.00,,,0.00,Wunderground v.1.15,2013-05-25 14:18:00,
2013-05-25 08:24:00,68.4,38.9,29.75,NNW,338,0.0,0.0,34,0.00,,,0.00,Wunderground v.1.15,2013-05-25 14:24:00,
2013-05-25 08:30:00,69.1,38.0,29.74,NNW,338,0.0,0.0,32,0.00,,,0.00,Wunderground v.1.15,2013-05-25 14:30:00,
2013-05-25 08:36:00,69.4,39.8,29.74,NNW,338,0.0,1.0,34,0.00,,,0.00,Wunderground v.1.15,2013-05-25 14:36:00,
2013-05-25 08:42:00,69.4,39.8,29.74,ENE,68,1.0,2.0,34,0.00,,,0.00,Wunderground v.1.15,2013-05-25 14:42:00,
2013-05-25 08:48:00,69.9,41.0,29.73,ENE,68,1.0,2.0,35,0.00,,,0.00,Wunderground v.1.15,2013-05-25 14:48:00,
2013-05-25 08:54:00,70.4,41.4,29.73,ENE,68,0.0,1.0,35,0.00,,,0.00,Wunderground v.1.15,2013-05-25 14:54:00,
2013-05-25 09:00:00,70.8,41.8,29.73,ENE,68,0.0,0.0,35,0.00,,,0.00,Wunderground v.1.15,2013-05-25 15:00:00,
2013-05-25 09:06:00,70.8,41.8,29.73,ENE,68,0.0,3.0,35,0.00,,,0.00,Wunderground v.1.15,2013-05-25 15:06:00,
2013-05-25 09:12:00,71.1,40.5,29.73,ENE,64,1.0,1.0,33,0.00,,,0.00,Wunderground v.1.15,2013-05-25 15:12:00,
2013-05-25 09:18:00,71.8,43.4,29.73,ENE,65,0.0,1.0,36,0.00,,,0.00,Wunderground v.1.15,2013-05-25 15:18:00,
2013-05-25 09:24:00,72.0,43.6,29.73,East,84,0.0,1.0,36,0.00,,,0.00,Wunderground v.1.15,2013-05-25 15:24:00,
2013-05-25 09:30:00,71.8,44.8,29.72,East,84,0.0,0.0,38,0.00,,,0.00,Wunderground v.1.15,2013-05-25 15:30:00,
2013-05-25 09:36:00,72.0,42.8,29.72,East,84,0.0,2.0,35,0.00,,,0.00,Wunderground v.1.15,2013-05-25 15:36:00,
2013-05-25 09:42:00,72.3,43.8,29.72,East,84,0.0,0.0,36,0.00,,,0.00,Wunderground v.1.15,2013-05-25 15:42:00,
2013-05-25 09:48:00,72.3,43.8,29.73,East,84,0.0,0.0,36,0.00,,,0.00,Wunderground v.1.15,2013-05-25 15:48:00,
2013-05-25 09:54:00,73.0,44.5,29.73,East,84,1.0,2.0,36,0.00,,,0.00,Wunderground v.1.15,2013-05-25 15:54:00,
2013-05-25 10:00:00,73.2,43.9,29.71,East,86,1.0,1.0,35,0.00,,,0.00,Wunderground v.1.15,2013-05-25 16:00:00,
2013-05-25 10:06:00,73.2,46.8,29.71,East,86,1.0,3.0,39,0.00,,,0.00,Wunderground v.1.15,2013-05-25 16:06:00,
2013-05-25 10:12:00,73.2,46.1,29.71,NE,38,1.0,1.0,38,0.00,,,0.00,Wunderground v.1.15,2013-05-25 16:12:00,
2013-05-25 10:18:00,73.5,47.0,29.72,NE,53,1.0,3.0,39,0.00,,,0.00,Wunderground v.1.15,2013-05-25 16:18:00,
2013-05-25 10:24:00,73.9,48.7,29.72,NE,53,1.0,1.0,41,0.00,,,0.00,Wunderground v.1.15,2013-05-25 16:24:00,
2013-05-25 10:30:00,74.0,47.5,29.71,NE,53,1.0,1.0,39,0.00,,,0.00,Wunderground v.1.15,2013-05-25 16:30:00,
2013-05-25 10:36:00,74.7,48.1,29.71,NE,53,0.0,3.0,39,0.00,,,0.00,Wunderground v.1.15,2013-05-25 16:36:00,
2013-05-25 10:42:00,74.7,47.4,29.71,East,92,1.0,4.0,38,0.00,,,0.00,Wunderground v.1.15,2013-05-25 16:42:00,
2013-05-25 10:48:00,74.7,48.1,29.70,East,96,2.0,4.0,39,0.00,,,0.00,Wunderground v.1.15,2013-05-25 16:48:00,
2013-05-25 10:54:00,74.2,46.2,29.70,East,99,2.0,4.0,37,0.00,,,0.00,Wunderground v.1.15,2013-05-25 16:54:00,
2013-05-25 11:00:00,74.6,48.0,29.70,North,358,2.0,2.0,39,0.00,,,0.00,Wunderground v.1.15,2013-05-25 17:00:00,
2013-05-25 11:06:00,75.3,46.5,29.70,SE,132,2.0,5.0,36,0.00,,,0.00,Wunderground v.1.15,2013-05-25 17:06:00,
2013-05-25 11:12:00,75.8,49.1,29.70,SE,132,2.0,2.0,39,0.00,,,0.00,Wunderground v.1.15,2013-05-25 17:12:00,
2013-05-25 11:18:00,76.8,47.1,29.69,North,4,1.0,6.0,35,0.00,,,0.00,Wunderground v.1.15,2013-05-25 17:18:00,
2013-05-25 11:24:00,76.5,43.6,29.69,ESE,107,2.0,4.0,31,0.00,,,0.00,Wunderground v.1.15,2013-05-25 17:24:00,
2013-05-25 11:30:00,76.8,47.1,29.68,NE,39,2.0,2.0,35,0.00,,,0.00,Wunderground v.1.15,2013-05-25 17:30:00,
2013-05-25 11:36:00,77.2,47.4,29.68,North,358,1.0,2.0,35,0.00,,,0.00,Wunderground v.1.15,2013-05-25 17:36:00,
2013-05-25 11:42:00,77.6,46.2,29.68,NNE,27,1.0,2.0,33,0.00,,,0.00,Wunderground v.1.15,2013-05-25 17:42:00,
2013-05-25 11:48:00,77.7,43.8,29.68,East,89,2.0,4.0,30,0.00,,,0.00,Wunderground v.1.15,2013-05-25 17:48:00,
2013-05-25 11:54:00,77.7,42.0,29.68,NE,52,2.0,2.0,28,0.00,,,0.00,Wunderground v.1.15,2013-05-25 17:54:00,
2013-05-25 12:00:00,78.3,45.2,29.68,ENE,60,1.0,1.0,31,0.00,,,0.00,Wunderground v.1.15,2013-05-25 18:00:00,
2013-05-25 12:06:00,79.0,43.1,29.68,ENE,60,1.0,7.0,28,0.00,,,0.00,Wunderground v.1.15,2013-05-25 18:06:00,
2013-05-25 12:12:00,79.4,39.4,29.68,ENE,63,1.0,1.0,24,0.00,,,0.00,Wunderground v.1.15,2013-05-25 18:12:00,
2013-05-25 12:18:00,80.5,41.4,29.67,ENE,67,1.0,1.0,25,0.00,,,0.00,Wunderground v.1.15,2013-05-25 18:18:00,
2013-05-25 12:24:00,81.1,37.5,29.67,North,0,1.0,7.0,21,0.00,,,0.00,Wunderground v.1.15,2013-05-25 18:24:00,
2013-05-25 12:30:00,80.3,38.0,29.66,NNE,16,2.0,2.0,22,0.00,,,0.00,Wunderground v.1.15,2013-05-25 18:30:00,
2013-05-25 12:36:00,80.3,32.9,29.66,East,80,1.0,2.0,18,0.00,,,0.00,Wunderground v.1.15,2013-05-25 18:36:00,
2013-05-25 12:42:00,81.1,39.8,29.66,East,84,1.0,4.0,23,0.00,,,0.00,Wunderground v.1.15,2013-05-25 18:42:00,
2013-05-25 12:48:00,81.6,36.6,29.64,ESE,102,1.0,4.0,20,0.00,,,0.00,Wunderground v.1.15,2013-05-25 18:48:00,
2013-05-25 12:54:00,81.6,36.6,29.64,NE,43,2.0,4.0,20,0.00,,,0.00,Wunderground v.1.15,2013-05-25 18:54:00,
2013-05-25 13:00:00,81.6,35.3,29.64,NE,37,2.0,2.0,19,0.00,,,0.00,Wunderground v.1.15,2013-05-25 19:00:00,
2013-05-25 13:06:00,81.2,35.0,29.64,NE,34,2.0,6.0,19,0.00,,,0.00,Wunderground v.1.15,2013-05-25 19:06:00,
2013-05-25 13:12:00,81.6,32.5,29.64,NE,34,1.0,2.0,17,0.00,,,0.00,Wunderground v.1.15,2013-05-25 19:12:00,
2013-05-25 13:18:00,82.0,35.7,29.64,NNE,27,1.0,4.0,19,0.00,,,0.00,Wunderground v.1.15,2013-05-25 19:18:00,
2013-05-25 13:24:00,82.8,33.5,29.64,NNE,32,1.0,2.0,17,0.00,,,0.00,Wunderground v.1.15,2013-05-25 19:24:00,
2013-05-25 13:30:00,83.4,32.5,29.64,NE,34,1.0,1.0,16,0.00,,,0.00,Wunderground v.1.15,2013-05-25 19:30:00,
2013-05-25 13:36:00,83.0,28.9,29.64,NE,46,2.0,4.0,14,0.00,,,0.00,Wunderground v.1.15,2013-05-25 19:36:00,
2013-05-25 13:42:00,82.0,28.1,29.64,NE,35,2.0,9.0,14,0.00,,,0.00,Wunderground v.1.15,2013-05-25 19:42:00,
2013-05-25 13:48:00,82.0,26.3,29.64,ESE,103,2.0,9.0,13,0.00,,,0.00,Wunderground v.1.15,2013-05-25 19:48:00,
2013-05-25 13:54:00,82.4,28.4,29.64,NNE,28,1.0,3.0,14,0.00,,,0.00,Wunderground v.1.15,2013-05-25 19:54:00,
2013-05-25 14:00:00,82.4,28.4,29.64,NNE,28,1.0,1.0,14,0.00,,,0.00,Wunderground v.1.15,2013-05-25 20:00:00,
2013-05-25 14:06:00,82.8,26.9,29.64,NNE,28,1.0,6.0,13,0.00,,,0.00,Wunderground v.1.15,2013-05-25 20:06:00,
2013-05-25 14:12:00,83.2,25.3,29.64,NE,37,1.0,1.0,12,0.00,,,0.00,Wunderground v.1.15,2013-05-25 20:12:00,
2013-05-25 14:18:00,84.1,29.7,29.65,NE,37,1.0,1.0,14,0.00,,,0.00,Wunderground v.1.15,2013-05-25 20:18:00,
2013-05-25 14:24:00,84.9,24.5,29.65,ESE,103,0.0,4.0,11,0.00,,,0.00,Wunderground v.1.15,2013-05-25 20:24:00,
2013-05-25 14:30:00,84.3,29.9,29.63,East,92,2.0,4.0,14,0.00,,,0.00,Wunderground v.1.15,2013-05-25 20:30:00,
2013-05-25 14:36:00,84.7,28.4,29.63,North,11,1.0,4.0,13,0.00,,,0.00,Wunderground v.1.15,2013-05-25 20:36:00,
2013-05-25 14:42:00,84.3,24.0,29.63,North,0,2.0,2.0,11,0.00,,,0.00,Wunderground v.1.15,2013-05-25 20:42:00,
2013-05-25 14:48:00,84.3,26.1,29.63,North,0,1.0,3.0,12,0.00,,,0.00,Wunderground v.1.15,2013-05-25 20:48:00,
2013-05-25 14:54:00,84.5,28.2,29.63,North,0,1.0,2.0,13,0.00,,,0.00,Wunderground v.1.15,2013-05-25 20:54:00,
2013-05-25 15:00:00,85.1,24.7,29.63,North,0,1.0,3.0,11,0.00,,,0.00,Wunderground v.1.15,2013-05-25 21:00:00,
2013-05-25 15:06:00,85.5,25.0,29.63,North,6,1.0,5.0,11,0.00,,,0.00,Wunderground v.1.15,2013-05-25 21:06:00,
2013-05-25 15:12:00,86.3,27.7,29.63,NNE,15,1.0,3.0,12,0.00,,,0.00,Wunderground v.1.15,2013-05-25 21:12:00,
2013-05-25 15:18:00,86.5,23.4,29.64,NNE,15,1.0,3.0,10,0.00,,,0.00,Wunderground v.1.15,2013-05-25 21:18:00,
2013-05-25 15:24:00,87.0,26.1,29.64,NNE,15,1.0,1.0,11,0.00,,,0.00,Wunderground v.1.15,2013-05-25 21:24:00,
2013-05-25 15:30:00,87.0,23.8,29.63,NE,56,1.0,2.0,10,0.00,,,0.00,Wunderground v.1.15,2013-05-25 21:30:00,
2013-05-25 15:36:00,87.0,26.1,29.63,NE,53,1.0,2.0,11,0.00,,,0.00,Wunderground v.1.15,2013-05-25 21:36:00,
2013-05-25 15:42:00,86.5,25.7,29.63,NE,36,2.0,4.0,11,0.00,,,0.00,Wunderground v.1.15,2013-05-25 21:42:00,
2013-05-25 15:48:00,86.1,25.4,29.62,NE,36,2.0,4.0,11,0.00,,,0.00,Wunderground v.1.15,2013-05-25 21:48:00,
2013-05-25 15:54:00,86.1,25.4,29.62,North,0,1.0,2.0,11,0.00,,,0.00,Wunderground v.1.15,2013-05-25 21:54:00,
2013-05-25 16:00:00,86.3,25.6,29.62,North,0,2.0,3.0,11,0.00,,,0.00,Wunderground v.1.15,2013-05-25 22:00:00,
2013-05-25 16:06:00,86.1,25.4,29.62,North,0,1.0,7.0,11,0.00,,,0.00,Wunderground v.1.15,2013-05-25 22:06:00,
2013-05-25 16:12:00,86.7,23.6,29.62,NNE,25,1.0,3.0,10,0.00,,,0.00,Wunderground v.1.15,2013-05-25 22:12:00,
2013-05-25 16:18:00,86.3,27.7,29.62,North,5,2.0,3.0,12,0.00,,,0.00,Wunderground v.1.15,2013-05-25 22:18:00,
2013-05-25 16:24:00,86.3,27.7,29.62,NE,41,3.0,3.0,12,0.00,,,0.00,Wunderground v.1.15,2013-05-25 22:24:00,
2013-05-25 16:30:00,85.7,29.2,29.63,East,85,2.0,3.0,13,0.00,,,0.00,Wunderground v.1.15,2013-05-25 22:30:00,
2013-05-25 16:36:00,85.3,28.9,29.63,East,84,2.0,3.0,13,0.00,,,0.00,Wunderground v.1.15,2013-05-25 22:36:00,
2013-05-25 16:42:00,85.5,29.0,29.63,East,85,1.0,2.0,13,0.00,,,0.00,Wunderground v.1.15,2013-05-25 22:42:00,
2013-05-25 16:48:00,85.9,27.4,29.62,East,84,1.0,2.0,12,0.00,,,0.00,Wunderground v.1.15,2013-05-25 22:48:00,
2013-05-25 16:54:00,86.5,31.6,29.62,NNE,18,1.0,3.0,14,0.00,,,0.00,Wunderground v.1.15,2013-05-25 22:54:00,
2013-05-25 17:00:00,85.5,30.8,29.62,NNE,16,2.0,2.0,14,0.00,,,0.00,Wunderground v.1.15,2013-05-25 23:00:00,
2013-05-25 17:06:00,85.5,30.8,29.62,NNE,16,1.0,7.0,14,0.00,,,0.00,Wunderground v.1.15,2013-05-25 23:06:00,
2013-05-25 17:12:00,85.7,31.0,29.62,NNE,16,0.0,0.0,14,0.00,,,0.00,Wunderground v.1.15,2013-05-25 23:12:00,
2013-05-25 17:18:00,86.1,33.0,29.60,NNE,16,0.0,2.0,15,0.00,,,0.00,Wunderground v.1.15,2013-05-25 23:18:00,
2013-05-25 17:24:00,85.5,32.6,29.60,NNE,17,1.0,2.0,15,0.00,,,0.00,Wunderground v.1.15,2013-05-25 23:24:00,
2013-05-25 17:30:00,84.9,33.7,29.60,NNE,17,1.0,1.0,16,0.00,,,0.00,Wunderground v.1.15,2013-05-25 23:30:00,
2013-05-25 17:36:00,85.3,32.4,29.60,NNE,17,0.0,1.0,15,0.00,,,0.00,Wunderground v.1.15,2013-05-25 23:36:00,
2013-05-25 17:42:00,85.1,33.8,29.60,North,8,1.0,1.0,16,0.00,,,0.00,Wunderground v.1.15,2013-05-25 23:42:00,
2013-05-25 17:48:00,84.7,35.0,29.59,NNE,31,2.0,3.0,17,0.00,,,0.00,Wunderground v.1.15,2013-05-25 23:48:00,
2013-05-25 17:54:00,84.5,34.9,29.59,NNE,30,1.0,3.0,17,0.00,,,0.00,Wunderground v.1.15,2013-05-25 23:54:00,
2013-05-25 18:00:00,84.1,33.0,29.59,NNE,27,1.0,3.0,16,0.00,,,0.00,Wunderground v.1.15,2013-05-26 00:00:00,
2013-05-25 18:06:00,84.3,31.6,29.59,NNE,18,2.0,6.0,15,0.00,,,0.00,Wunderground v.1.15,2013-05-26 00:06:00,
2013-05-25 18:12:00,84.5,33.4,29.59,NNE,18,1.0,3.0,16,0.00,,,0.00,Wunderground v.1.15,2013-05-26 00:12:00,
2013-05-25 18:18:00,84.5,33.4,29.57,North,358,2.0,4.0,16,0.00,,,0.00,Wunderground v.1.15,2013-05-26 00:18:00,
2013-05-25 18:24:00,84.3,34.7,29.57,North,358,2.0,2.0,17,0.00,,,0.00,Wunderground v.1.15,2013-05-26 00:24:00,
2013-05-25 18:30:00,84.1,34.6,29.58,North,358,1.0,1.0,17,0.00,,,0.00,Wunderground v.1.15,2013-05-26 00:30:00,
2013-05-25 18:36:00,83.6,34.2,29.58,North,358,1.0,3.0,17,0.00,,,0.00,Wunderground v.1.15,2013-05-26 00:36:00,
2013-05-25 18:42:00,83.0,35.1,29.58,North,356,1.0,3.0,18,0.00,,,0.00,Wunderground v.1.15,2013-05-26 00:42:00,
2013-05-25 18:48:00,82.2,34.5,29.58,North,356,1.0,3.0,18,0.00,,,0.00,Wunderground v.1.15,2013-05-26 00:48:00,
2013-05-25 18:54:00,81.6,34.0,29.58,North,356,1.0,5.0,18,0.00,,,0.00,Wunderground v.1.15,2013-05-26 00:54:00,
2013-05-25 19:00:00,81.2,33.6,29.59,NNW,335,2.0,3.0,18,0.00,,,0.00,Wunderground v.1.15,2013-05-26 01:00:00,
2013-05-25 19:06:00,81.1,34.9,29.59,NNW,338,3.0,6.0,19,0.00,,,0.00,Wunderground v.1.15,2013-05-26 01:06:00,
2013-05-25 19:12:00,80.9,37.3,29.59,NNW,338,1.0,2.0,21,0.00,,,0.00,Wunderground v.1.15,2013-05-26 01:12:00,
2013-05-25 19:18:00,81.1,37.5,29.56,NNW,338,1.0,3.0,21,0.00,,,0.00,Wunderground v.1.15,2013-05-26 01:18:00,
2013-05-25 19:24:00,80.9,37.3,29.56,NNW,338,1.0,1.0,21,0.00,,,0.00,Wunderground v.1.15,2013-05-26 01:24:00,
2013-05-25 19:30:00,80.5,38.1,29.57,NNW,338,0.0,2.0,22,0.00,,,0.00,Wunderground v.1.15,2013-05-26 01:30:00,
2013-05-25 19:36:00,80.1,37.8,29.57,NNW,338,0.0,2.0,22,0.00,,,0.00,Wunderground v.1.15,2013-05-26 01:36:00,
2013-05-25 19:42:00,79.8,37.6,29.57,NNW,338,1.0,1.0,22,0.00,,,0.00,Wunderground v.1.15,2013-05-26 01:42:00,
2013-05-25 19:48:00,79.4,37.2,29.58,NNW,338,1.0,1.0,22,0.00,,,0.00,Wunderground v.1.15,2013-05-26 01:48:00,
2013-05-25 19:54:00,79.0,38.0,29.58,NNW,338,1.0,2.0,23,0.00,,,0.00,Wunderground v.1.15,2013-05-26 01:54:00,
2013-05-25 20:00:00,78.6,38.8,29.58,NNW,338,1.0,1.0,24,0.00,,,0.00,Wunderground v.1.15,2013-05-26 02:00:00,
2013-05-25 20:06:00,78.3,37.4,29.58,NNW,338,0.0,6.0,23,0.00,,,0.00,Wunderground v.1.15,2013-05-26 02:06:00,
2013-05-25 20:12:00,78.1,37.3,29.58,NNW,338,1.0,1.0,23,0.00,,,0.00,Wunderground v.1.15,2013-05-26 02:12:00,
2013-05-25 20:18:00,77.9,38.2,29.56,NNW,338,0.0,1.0,24,0.00,,,0.00,Wunderground v.1.15,2013-05-26 02:18:00,
2013-05-25 20:24:00,77.6,39.0,29.56,NNW,338,0.0,2.0,25,0.00,,,0.00,Wunderground v.1.15,2013-05-26 02:24:00,
2013-05-25 20:30:00,76.8,38.3,29.57,NNW,335,1.0,2.0,25,0.00,,,0.00,Wunderground v.1.15,2013-05-26 02:30:00,
2013-05-25 20:36:00,76.1,36.7,29.57,NNW,332,2.0,4.0,24,0.00,,,0.00,Wunderground v.1.15,2013-05-26 02:36:00,
2013-05-25 20:42:00,76.0,37.6,29.57,NNW,332,2.0,2.0,25,0.00,,,0.00,Wunderground v.1.15,2013-05-26 02:42:00,
2013-05-25 20:48:00,75.6,38.3,29.58,NNW,332,1.0,2.0,26,0.00,,,0.00,Wunderground v.1.15,2013-05-26 02:48:00,
2013-05-25 20:54:00,75.3,38.0,29.58,NNW,332,1.0,1.0,26,0.00,,,0.00,Wunderground v.1.15,2013-05-26 02:54:00,
2013-05-25 21:00:00,74.6,37.4,29.59,NW,315,1.0,3.0,26,0.00,,,0.00,Wunderground v.1.15,2013-05-26 03:00:00,
2013-05-25 21:06:00,73.9,38.7,29.59,NW,315,2.0,4.0,28,0.00,,,0.00,Wunderground v.1.15,2013-05-26 03:06:00,
2013-05-25 21:12:00,73.3,38.2,29.59,NW,315,1.0,2.0,28,0.00,,,0.00,Wunderground v.1.15,2013-05-26 03:12:00,
2013-05-25 21:18:00,73.0,38.0,29.60,NW,309,1.0,3.0,28,0.00,,,0.00,Wunderground v.1.15,2013-05-26 03:18:00,
2013-05-25 21:24:00,73.0,38.0,29.60,NW,309,3.0,4.0,28,0.00,,,0.00,Wunderground v.1.15,2013-05-26 03:24:00,
2013-05-25 21:30:00,72.8,37.8,29.61,NW,308,3.0,3.0,28,0.00,,,0.00,Wunderground v.1.15,2013-05-26 03:30:00,
2013-05-25 21:36:00,72.7,37.7,29.61,NW,308,2.0,3.0,28,0.00,,,0.00,Wunderground v.1.15,2013-05-26 03:36:00,
2013-05-25 21:42:00,72.5,37.5,29.61,NW,308,1.0,1.0,28,0.00,,,0.00,Wunderground v.1.15,2013-05-26 03:42:00,
2013-05-25 21:48:00,72.3,36.4,29.61,NW,308,0.0,1.0,27,0.00,,,0.00,Wunderground v.1.15,2013-05-26 03:48:00,
2013-05-25 21:54:00,72.1,37.2,29.61,NW,308,1.0,3.0,28,0.00,,,0.00,Wunderground v.1.15,2013-05-26 03:54:00,
2013-05-25 22:00:00,71.8,36.9,29.62,NW,308,1.0,2.0,28,0.00,,,0.00,Wunderground v.1.15,2013-05-26 04:00:00,
2013-05-25 22:02:00,71.8,36.9,29.62,NW,308,1.0,6.0,28,0.00,,,0.00,Wunderground v.1.15,2013-05-26 04:02:00,
2013-05-25 22:04:00,71.8,36.0,29.62,NW,308,1.0,6.0,27,0.00,,,0.00,Wunderground v.1.15,2013-05-26 04:04:00,
2013-05-25 22:06:00,71.8,36.0,29.62,NW,308,1.0,6.0,27,0.00,,,0.00,Wunderground v.1.15,2013-05-26 04:06:00,
2013-05-25 22:10:00,71.6,34.9,29.62,NW,308,1.0,4.0,26,0.00,,,0.00,Wunderground v.1.15,2013-05-26 04:10:00,
2013-05-25 22:16:00,71.8,33.0,29.62,NW,304,2.0,5.0,24,0.00,,,0.00,Wunderground v.1.15,2013-05-26 04:16:00,
2013-05-25 22:22:00,71.8,33.0,29.62,NW,304,3.0,4.0,24,0.00,,,0.00,Wunderground v.1.15,2013-05-26 04:22:00,
2013-05-25 22:28:00,71.6,31.8,29.62,NW,304,3.0,4.0,23,0.00,,,0.00,Wunderground v.1.15,2013-05-26 04:28:00,
2013-05-25 22:34:00,71.3,29.3,29.62,WNW,290,3.0,4.0,21,0.00,,,0.00,Wunderground v.1.15,2013-05-26 04:34:00,
2013-05-25 22:40:00,71.1,29.2,29.62,WNW,282,4.0,4.0,21,0.00,,,0.00,Wunderground v.1.15,2013-05-26 04:40:00,
2013-05-25 22:46:00,70.9,27.8,29.62,WNW,291,3.0,4.0,20,0.00,,,0.00,Wunderground v.1.15,2013-05-26 04:46:00,
2013-05-25 22:52:00,70.8,27.7,29.62,NW,305,3.0,3.0,20,0.00,,,0.00,Wunderground v.1.15,2013-05-26 04:52:00,
2013-05-25 22:58:00,70.8,27.7,29.62,West,279,4.0,6.0,20,0.00,,,0.00,Wunderground v.1.15,2013-05-26 04:58:00,
2013-05-25 23:04:00,70.3,28.5,29.62,West,277,4.0,4.0,21,0.00,,,0.00,Wunderground v.1.15,2013-05-26 05:04:00,
2013-05-25 23:10:00,69.9,29.3,29.62,West,279,3.0,7.0,22,0.00,,,0.00,Wunderground v.1.15,2013-05-26 05:10:00,
2013-05-25 23:16:00,69.8,26.9,29.61,West,277,4.0,7.0,20,0.00,,,0.00,Wunderground v.1.15,2013-05-26 05:16:00,
2013-05-25 23:22:00,69.4,27.7,29.61,WNW,283,4.0,4.0,21,0.00,,,0.00,Wunderground v.1.15,2013-05-26 05:22:00,
2013-05-25 23:28:00,69.1,27.5,29.61,WNW,283,4.0,4.0,21,0.00,,,0.00,Wunderground v.1.15,2013-05-26 05:28:00,
2013-05-25 23:34:00,68.9,27.3,29.61,West,272,4.0,4.0,21,0.00,,,0.00,Wunderground v.1.15,2013-05-26 05:34:00,
2013-05-25 23:40:00,68.6,27.1,29.61,West,273,4.0,4.0,21,0.00,,,0.00,Wunderground v.1.15,2013-05-26 05:40:00,
2013-05-25 23:46:00,68.4,26.9,29.61,WNW,300,4.0,4.0,21,0.00,,,0.00,Wunderground v.1.15,2013-05-26 05:46:00,
2013-05-25 23:52:00,68.1,25.5,29.61,WNW,290,4.0,5.0,20,0.00,,,0.00,Wunderground v.1.15,2013-05-26 05:52:00,
2013-05-25 23:58:00,67.9,25.3,29.61,West,278,4.0,7.0,20,0.00,,,0.00,Wunderground v.1.15,2013-05-26 05:58:00,